sensor_id;sensor_type;location;lat;lon;timestamp;pressure;altitude;pressure_sealevel;temperature;humidity
60970;BME280;46841;48.938;9.502;2024-02-21T00:01:39;99559.47;;;4.22;90.74
60970;BME280;46841;48.938;9.502;2024-02-21T00:04:05;99563.50;;;4.17;91.24
60970;BME280;46841;48.938;9.502;2024-02-21T00:06:31;99561.88;;;4.05;91.12
60970;BME280;46841;48.938;9.502;2024-02-21T00:08:57;99562.78;;;4.06;91.65
60970;BME280;46841;48.938;9.502;2024-02-21T00:11:22;99553.53;;;3.99;91.91
60970;BME280;46841;48.938;9.502;2024-02-21T00:13:48;99556.22;;;4.13;91.75
60970;BME280;46841;48.938;9.502;2024-02-21T00:16:15;99551.41;;;4.07;91.46
60970;BME280;46841;48.938;9.502;2024-02-21T00:18:42;99557.41;;;4.04;91.37
60970;BME280;46841;48.938;9.502;2024-02-21T00:21:08;99546.56;;;4.13;91.46
60970;BME280;46841;48.938;9.502;2024-02-21T00:23:33;99542.69;;;4.08;91.42
60970;BME280;46841;48.938;9.502;2024-02-21T00:25:59;99535.75;;;3.97;92.29
60970;BME280;46841;48.938;9.502;2024-02-21T00:28:24;99533.53;;;3.90;92.54
60970;BME280;46841;48.938;9.502;2024-02-21T00:30:51;99526.22;;;3.85;92.95
60970;BME280;46841;48.938;9.502;2024-02-21T00:33:19;99521.47;;;3.93;93.12
60970;BME280;46841;48.938;9.502;2024-02-21T00:35:45;99515.13;;;3.78;92.78
60970;BME280;46841;48.938;9.502;2024-02-21T00:38:10;99507.91;;;3.75;93.18
60970;BME280;46841;48.938;9.502;2024-02-21T00:40:36;99506.28;;;3.77;92.67
60970;BME280;46841;48.938;9.502;2024-02-21T00:43:03;99510.75;;;3.65;93.10
60970;BME280;46841;48.938;9.502;2024-02-21T00:45:28;99514.47;;;3.69;93.51
60970;BME280;46841;48.938;9.502;2024-02-21T00:47:54;99503.75;;;3.66;93.87
60970;BME280;46841;48.938;9.502;2024-02-21T00:50:22;99507.88;;;3.62;93.97
60970;BME280;46841;48.938;9.502;2024-02-21T00:52:47;99505.91;;;3.84;93.77
60970;BME280;46841;48.938;9.502;2024-02-21T00:55:15;99509.38;;;3.83;93.62
60970;BME280;46841;48.938;9.502;2024-02-21T00:57:42;99507.31;;;3.79;93.48
60970;BME280;46841;48.938;9.502;2024-02-21T01:00:08;99498.31;;;3.89;93.46
60970;BME280;46841;48.938;9.502;2024-02-21T01:02:33;99498.47;;;3.92;93.38
60970;BME280;46841;48.938;9.502;2024-02-21T01:05:00;99496.78;;;4.06;93.09
60970;BME280;46841;48.938;9.502;2024-02-21T01:07:25;99495.06;;;4.20;92.54
60970;BME280;46841;48.938;9.502;2024-02-21T01:09:51;99494.66;;;4.27;91.95
60970;BME280;46841;48.938;9.502;2024-02-21T01:12:17;99481.63;;;4.30;91.57
60970;BME280;46841;48.938;9.502;2024-02-21T01:14:42;99484.50;;;4.33;91.72
60970;BME280;46841;48.938;9.502;2024-02-21T01:17:08;99485.72;;;4.38;91.64
60970;BME280;46841;48.938;9.502;2024-02-21T01:19:33;99472.88;;;4.44;91.23
60970;BME280;46841;48.938;9.502;2024-02-21T01:21:59;99468.72;;;4.34;91.30
60970;BME280;46841;48.938;9.502;2024-02-21T01:24:24;99462.44;;;4.46;91.73
60970;BME280;46841;48.938;9.502;2024-02-21T01:26:50;99459.28;;;4.51;91.22
60970;BME280;46841;48.938;9.502;2024-02-21T01:29:15;99452.97;;;4.49;91.29
60970;BME280;46841;48.938;9.502;2024-02-21T01:31:40;99449.09;;;4.57;91.47
60970;BME280;46841;48.938;9.502;2024-02-21T01:34:06;99448.19;;;4.57;90.98
60970;BME280;46841;48.938;9.502;2024-02-21T01:36:31;99454.63;;;4.75;90.10
60970;BME280;46841;48.938;9.502;2024-02-21T01:38:57;99448.53;;;4.76;89.57
60970;BME280;46841;48.938;9.502;2024-02-21T01:41:22;99449.34;;;4.75;89.47
60970;BME280;46841;48.938;9.502;2024-02-21T01:43:48;99442.22;;;4.74;89.67
60970;BME280;46841;48.938;9.502;2024-02-21T01:46:13;99440.22;;;4.70;90.10
60970;BME280;46841;48.938;9.502;2024-02-21T01:48:39;99432.66;;;4.76;90.24
60970;BME280;46841;48.938;9.502;2024-02-21T01:51:04;99437.75;;;4.73;90.39
60970;BME280;46841;48.938;9.502;2024-02-21T01:53:34;99426.47;;;4.76;89.81
60970;BME280;46841;48.938;9.502;2024-02-21T01:56:02;99419.69;;;4.66;90.25
60970;BME280;46841;48.938;9.502;2024-02-21T01:58:28;99419.41;;;4.61;90.73
60970;BME280;46841;48.938;9.502;2024-02-21T02:00:57;99414.81;;;4.59;90.71
60970;BME280;46841;48.938;9.502;2024-02-21T02:03:23;99411.88;;;4.54;91.05
60970;BME280;46841;48.938;9.502;2024-02-21T02:05:50;99409.78;;;4.49;91.22
60970;BME280;46841;48.938;9.502;2024-02-21T02:08:17;99399.03;;;4.46;91.31
60970;BME280;46841;48.938;9.502;2024-02-21T02:10:43;99400.56;;;4.42;92.02
60970;BME280;46841;48.938;9.502;2024-02-21T02:13:09;99406.66;;;4.41;92.30
60970;BME280;46841;48.938;9.502;2024-02-21T02:15:43;99396.16;;;4.56;91.97
60970;BME280;46841;48.938;9.502;2024-02-21T02:18:10;99393.09;;;4.50;92.11
60970;BME280;46841;48.938;9.502;2024-02-21T02:20:37;99387.84;;;4.64;91.69
60970;BME280;46841;48.938;9.502;2024-02-21T02:25:47;99369.03;;;4.45;92.09
60970;BME280;46841;48.938;9.502;2024-02-21T02:28:17;99367.50;;;4.49;92.00
60970;BME280;46841;48.938;9.502;2024-02-21T02:30:43;99366.50;;;4.47;92.34
60970;BME280;46841;48.938;9.502;2024-02-21T02:33:09;99358.16;;;4.41;92.56
60970;BME280;46841;48.938;9.502;2024-02-21T02:35:35;99359.84;;;4.53;92.37
60970;BME280;46841;48.938;9.502;2024-02-21T02:38:02;99350.25;;;4.69;92.05
60970;BME280;46841;48.938;9.502;2024-02-21T02:40:27;99349.16;;;4.65;91.61
60970;BME280;46841;48.938;9.502;2024-02-21T02:42:53;99355.16;;;4.62;91.40
60970;BME280;46841;48.938;9.502;2024-02-21T02:45:21;99355.91;;;4.60;91.96
60970;BME280;46841;48.938;9.502;2024-02-21T02:47:48;99351.25;;;4.71;91.65
60970;BME280;46841;48.938;9.502;2024-02-21T02:50:14;99346.25;;;4.75;91.55
60970;BME280;46841;48.938;9.502;2024-02-21T02:52:40;99345.09;;;4.85;91.02
60970;BME280;46841;48.938;9.502;2024-02-21T02:55:05;99345.63;;;4.79;91.01
60970;BME280;46841;48.938;9.502;2024-02-21T02:57:31;99344.63;;;4.77;90.27
60970;BME280;46841;48.938;9.502;2024-02-21T02:59:57;99345.72;;;4.81;90.35
60970;BME280;46841;48.938;9.502;2024-02-21T03:02:23;99335.72;;;4.90;90.29
60970;BME280;46841;48.938;9.502;2024-02-21T03:04:48;99328.75;;;4.77;91.08
60970;BME280;46841;48.938;9.502;2024-02-21T03:07:15;99323.19;;;4.73;91.72
60970;BME280;46841;48.938;9.502;2024-02-21T03:09:41;99320.19;;;4.81;91.73
60970;BME280;46841;48.938;9.502;2024-02-21T03:12:08;99325.66;;;4.70;92.26
60970;BME280;46841;48.938;9.502;2024-02-21T03:14:34;99327.56;;;4.72;92.66
60970;BME280;46841;48.938;9.502;2024-02-21T03:17:00;99330.19;;;4.72;92.90
60970;BME280;46841;48.938;9.502;2024-02-21T03:19:28;99335.69;;;4.75;92.47
60970;BME280;46841;48.938;9.502;2024-02-21T03:21:53;99328.81;;;4.64;93.19
60970;BME280;46841;48.938;9.502;2024-02-21T03:24:19;99331.84;;;4.70;93.35
60970;BME280;46841;48.938;9.502;2024-02-21T03:26:47;99336.41;;;4.73;93.20
60970;BME280;46841;48.938;9.502;2024-02-21T03:29:14;99333.47;;;4.68;93.50
60970;BME280;46841;48.938;9.502;2024-02-21T03:31:40;99327.41;;;4.84;92.20
60970;BME280;46841;48.938;9.502;2024-02-21T03:34:06;99326.84;;;4.75;92.64
60970;BME280;46841;48.938;9.502;2024-02-21T03:36:31;99325.47;;;4.81;91.96
60970;BME280;46841;48.938;9.502;2024-02-21T03:38:57;99308.22;;;4.73;93.04
60970;BME280;46841;48.938;9.502;2024-02-21T03:41:22;99306.22;;;4.69;93.15
60970;BME280;46841;48.938;9.502;2024-02-21T03:43:48;99301.19;;;4.59;93.25
60970;BME280;46841;48.938;9.502;2024-02-21T03:46:14;99304.13;;;4.35;93.34
60970;BME280;46841;48.938;9.502;2024-02-21T03:48:40;99303.91;;;4.18;94.23
60970;BME280;46841;48.938;9.502;2024-02-21T03:51:06;99308.69;;;4.10;94.89
60970;BME280;46841;48.938;9.502;2024-02-21T03:53:32;99300.28;;;4.02;95.26
60970;BME280;46841;48.938;9.502;2024-02-21T03:56:02;99303.34;;;3.95;96.40
60970;BME280;46841;48.938;9.502;2024-02-21T03:58:30;99300.78;;;4.10;96.78
60970;BME280;46841;48.938;9.502;2024-02-21T04:00:55;99295.94;;;4.03;96.28
60970;BME280;46841;48.938;9.502;2024-02-21T04:03:21;99292.84;;;4.10;96.75
60970;BME280;46841;48.938;9.502;2024-02-21T04:05:46;99288.94;;;4.03;96.59
60970;BME280;46841;48.938;9.502;2024-02-21T04:08:12;99296.03;;;3.91;97.16
60970;BME280;46841;48.938;9.502;2024-02-21T04:10:37;99299.16;;;4.12;96.96
60970;BME280;46841;48.938;9.502;2024-02-21T04:13:06;99283.16;;;3.96;97.04
60970;BME280;46841;48.938;9.502;2024-02-21T04:15:31;99290.75;;;3.91;97.32
60970;BME280;46841;48.938;9.502;2024-02-21T04:17:57;99290.25;;;3.97;97.23
60970;BME280;46841;48.938;9.502;2024-02-21T04:20:22;99292.72;;;3.94;97.21
60970;BME280;46841;48.938;9.502;2024-02-21T04:22:49;99287.84;;;3.86;97.72
60970;BME280;46841;48.938;9.502;2024-02-21T04:25:16;99275.13;;;3.94;97.78
60970;BME280;46841;48.938;9.502;2024-02-21T04:27:41;99267.75;;;3.75;98.08
60970;BME280;46841;48.938;9.502;2024-02-21T04:30:07;99249.00;;;3.71;98.58
60970;BME280;46841;48.938;9.502;2024-02-21T04:32:35;99246.75;;;3.64;98.97
60970;BME280;46841;48.938;9.502;2024-02-21T04:35:03;99248.81;;;3.54;98.89
60970;BME280;46841;48.938;9.502;2024-02-21T04:37:28;99252.09;;;3.50;98.47
60970;BME280;46841;48.938;9.502;2024-02-21T04:39:54;99243.50;;;3.68;98.32
60970;BME280;46841;48.938;9.502;2024-02-21T04:42:19;99251.34;;;3.66;98.31
60970;BME280;46841;48.938;9.502;2024-02-21T04:44:47;99243.63;;;3.69;98.24
60970;BME280;46841;48.938;9.502;2024-02-21T04:47:14;99248.53;;;3.50;98.50
60970;BME280;46841;48.938;9.502;2024-02-21T04:49:41;99233.78;;;3.53;98.71
60970;BME280;46841;48.938;9.502;2024-02-21T04:52:07;99240.63;;;3.50;98.66
60970;BME280;46841;48.938;9.502;2024-02-21T04:54:32;99242.13;;;3.59;98.64
60970;BME280;46841;48.938;9.502;2024-02-21T04:57:00;99240.50;;;3.48;98.39
60970;BME280;46841;48.938;9.502;2024-02-21T04:59:25;99242.06;;;3.31;98.83
60970;BME280;46841;48.938;9.502;2024-02-21T05:01:51;99258.41;;;3.26;98.92
60970;BME280;46841;48.938;9.502;2024-02-21T05:04:16;99254.81;;;3.25;98.86
60970;BME280;46841;48.938;9.502;2024-02-21T05:06:42;99263.94;;;3.04;98.91
60970;BME280;46841;48.938;9.502;2024-02-21T05:09:08;99264.03;;;3.05;98.60
60970;BME280;46841;48.938;9.502;2024-02-21T05:11:43;99267.59;;;3.06;98.49
60970;BME280;46841;48.938;9.502;2024-02-21T05:14:09;99262.94;;;2.89;99.50
60970;BME280;46841;48.938;9.502;2024-02-21T05:16:34;99258.75;;;2.79;100.00
60970;BME280;46841;48.938;9.502;2024-02-21T05:19:01;99253.28;;;2.38;100.00
60970;BME280;46841;48.938;9.502;2024-02-21T05:21:26;99258.63;;;2.26;100.00
60970;BME280;46841;48.938;9.502;2024-02-21T05:23:55;99261.44;;;2.04;100.00
60970;BME280;46841;48.938;9.502;2024-02-21T05:26:27;99256.84;;;2.13;100.00
60970;BME280;46841;48.938;9.502;2024-02-21T05:28:56;99242.34;;;2.07;100.00
60970;BME280;46841;48.938;9.502;2024-02-21T05:31:22;99224.28;;;1.99;100.00
60970;BME280;46841;48.938;9.502;2024-02-21T05:33:47;99217.44;;;2.40;100.00
60970;BME280;46841;48.938;9.502;2024-02-21T05:36:13;99208.41;;;2.36;100.00
60970;BME280;46841;48.938;9.502;2024-02-21T05:38:39;99196.06;;;2.10;100.00
60970;BME280;46841;48.938;9.502;2024-02-21T05:41:07;99207.97;;;1.92;100.00
60970;BME280;46841;48.938;9.502;2024-02-21T05:43:44;99210.34;;;1.64;100.00
60970;BME280;46841;48.938;9.502;2024-02-21T05:46:09;99209.69;;;1.54;100.00
60970;BME280;46841;48.938;9.502;2024-02-21T05:48:37;99223.81;;;1.32;100.00
60970;BME280;46841;48.938;9.502;2024-02-21T05:51:11;99222.72;;;1.53;100.00
60970;BME280;46841;48.938;9.502;2024-02-21T05:53:38;99211.19;;;1.51;100.00
60970;BME280;46841;48.938;9.502;2024-02-21T05:56:13;99206.94;;;1.53;100.00
60970;BME280;46841;48.938;9.502;2024-02-21T05:58:40;99210.22;;;1.62;100.00
60970;BME280;46841;48.938;9.502;2024-02-21T06:01:07;99202.91;;;1.58;100.00
60970;BME280;46841;48.938;9.502;2024-02-21T06:03:33;99192.50;;;1.35;100.00
60970;BME280;46841;48.938;9.502;2024-02-21T06:05:59;99188.97;;;1.22;100.00
60970;BME280;46841;48.938;9.502;2024-02-21T06:08:28;99186.78;;;1.28;100.00
60970;BME280;46841;48.938;9.502;2024-02-21T06:10:59;99183.00;;;1.37;100.00
60970;BME280;46841;48.938;9.502;2024-02-21T06:13:33;99186.50;;;1.49;100.00
60970;BME280;46841;48.938;9.502;2024-02-21T06:16:01;99195.56;;;1.77;100.00
60970;BME280;46841;48.938;9.502;2024-02-21T06:18:26;99199.28;;;1.81;100.00
60970;BME280;46841;48.938;9.502;2024-02-21T06:20:55;99195.25;;;1.73;100.00
60970;BME280;46841;48.938;9.502;2024-02-21T06:23:22;99196.63;;;1.68;100.00
60970;BME280;46841;48.938;9.502;2024-02-21T06:25:47;99202.34;;;1.62;100.00
60970;BME280;46841;48.938;9.502;2024-02-21T06:28:13;99192.09;;;1.53;100.00
60970;BME280;46841;48.938;9.502;2024-02-21T06:30:40;99201.38;;;1.37;100.00
60970;BME280;46841;48.938;9.502;2024-02-21T06:33:09;99196.03;;;1.23;100.00
60970;BME280;46841;48.938;9.502;2024-02-21T06:35:34;99201.06;;;1.32;100.00
60970;BME280;46841;48.938;9.502;2024-02-21T06:38:01;99196.50;;;1.30;100.00
60970;BME280;46841;48.938;9.502;2024-02-21T06:40:27;99194.56;;;1.27;100.00
60970;BME280;46841;48.938;9.502;2024-02-21T06:42:54;99205.66;;;1.23;100.00
60970;BME280;46841;48.938;9.502;2024-02-21T06:45:20;99200.03;;;1.30;100.00
60970;BME280;46841;48.938;9.502;2024-02-21T06:47:46;99203.78;;;1.45;100.00
60970;BME280;46841;48.938;9.502;2024-02-21T06:50:12;99208.06;;;1.57;100.00
60970;BME280;46841;48.938;9.502;2024-02-21T06:52:37;99208.56;;;1.51;100.00
60970;BME280;46841;48.938;9.502;2024-02-21T06:55:04;99214.00;;;1.66;100.00
60970;BME280;46841;48.938;9.502;2024-02-21T06:57:30;99192.72;;;1.63;100.00
60970;BME280;46841;48.938;9.502;2024-02-21T06:59:55;99188.53;;;1.90;100.00
60970;BME280;46841;48.938;9.502;2024-02-21T07:02:21;99188.81;;;2.19;100.00
60970;BME280;46841;48.938;9.502;2024-02-21T07:04:52;99187.69;;;2.54;97.96
60970;BME280;46841;48.938;9.502;2024-02-21T07:07:22;99182.03;;;2.61;98.06
60970;BME280;46841;48.938;9.502;2024-02-21T07:09:48;99179.41;;;2.88;97.15
60970;BME280;46841;48.938;9.502;2024-02-21T07:12:14;99170.69;;;3.02;96.18
60970;BME280;46841;48.938;9.502;2024-02-21T07:14:40;99168.16;;;3.17;95.65
60970;BME280;46841;48.938;9.502;2024-02-21T07:17:06;99174.78;;;3.38;94.06
60970;BME280;46841;48.938;9.502;2024-02-21T07:19:31;99167.03;;;3.54;91.56
60970;BME280;46841;48.938;9.502;2024-02-21T07:21:57;99170.13;;;3.75;91.95
60970;BME280;46841;48.938;9.502;2024-02-21T07:24:22;99160.31;;;3.88;91.47
60970;BME280;46841;48.938;9.502;2024-02-21T07:26:48;99160.19;;;3.99;90.90
60970;BME280;46841;48.938;9.502;2024-02-21T07:29:13;99158.25;;;3.97;90.92
60970;BME280;46841;48.938;9.502;2024-02-21T07:31:42;99156.47;;;4.10;90.43
60970;BME280;46841;48.938;9.502;2024-02-21T07:34:08;99162.94;;;4.30;90.77
60970;BME280;46841;48.938;9.502;2024-02-21T07:36:34;99150.75;;;4.77;88.75
60970;BME280;46841;48.938;9.502;2024-02-21T07:39:00;99156.97;;;5.23;87.72
60970;BME280;46841;48.938;9.502;2024-02-21T07:41:25;99148.09;;;5.54;86.68
60970;BME280;46841;48.938;9.502;2024-02-21T07:43:51;99143.47;;;5.66;86.44
60970;BME280;46841;48.938;9.502;2024-02-21T07:46:20;99151.09;;;5.76;86.91
60970;BME280;46841;48.938;9.502;2024-02-21T07:48:46;99150.63;;;6.00;85.66
60970;BME280;46841;48.938;9.502;2024-02-21T07:51:12;99138.44;;;6.20;86.75
60970;BME280;46841;48.938;9.502;2024-02-21T07:53:41;99129.03;;;6.77;84.45
60970;BME280;46841;48.938;9.502;2024-02-21T07:56:12;99122.19;;;7.17;82.12
60970;BME280;46841;48.938;9.502;2024-02-21T07:58:37;99112.28;;;7.51;82.58
60970;BME280;46841;48.938;9.502;2024-02-21T08:01:03;99108.63;;;7.86;79.82
60970;BME280;46841;48.938;9.502;2024-02-21T08:03:30;99104.53;;;8.13;81.43
60970;BME280;46841;48.938;9.502;2024-02-21T08:05:55;99095.78;;;8.35;79.97
60970;BME280;46841;48.938;9.502;2024-02-21T08:08:20;99090.75;;;8.41;78.51
60970;BME280;46841;48.938;9.502;2024-02-21T08:10:50;99090.28;;;8.52;76.72
60970;BME280;46841;48.938;9.502;2024-02-21T08:13:15;99090.88;;;9.07;76.80
60970;BME280;46841;48.938;9.502;2024-02-21T08:15:41;99088.97;;;9.05;72.55
60970;BME280;46841;48.938;9.502;2024-02-21T08:18:08;99091.63;;;8.82;69.61
60970;BME280;46841;48.938;9.502;2024-02-21T08:20:34;99087.25;;;8.42;69.62
60970;BME280;46841;48.938;9.502;2024-02-21T08:22:59;99085.88;;;8.52;68.23
60970;BME280;46841;48.938;9.502;2024-02-21T08:25:25;99072.44;;;9.34;66.38
60970;BME280;46841;48.938;9.502;2024-02-21T08:27:50;99068.97;;;9.83;64.24
60970;BME280;46841;48.938;9.502;2024-02-21T08:30:17;99062.84;;;9.86;63.12
60970;BME280;46841;48.938;9.502;2024-02-21T08:32:43;99062.22;;;10.17;62.96
60970;BME280;46841;48.938;9.502;2024-02-21T08:35:08;99066.44;;;10.87;58.38
60970;BME280;46841;48.938;9.502;2024-02-21T08:37:33;99071.94;;;10.64;58.53
60970;BME280;46841;48.938;9.502;2024-02-21T08:39:59;99068.94;;;10.82;58.88
60970;BME280;46841;48.938;9.502;2024-02-21T08:42:31;99064.97;;;10.44;57.83
60970;BME280;46841;48.938;9.502;2024-02-21T08:44:56;99062.31;;;10.69;59.42
60970;BME280;46841;48.938;9.502;2024-02-21T08:47:22;99062.13;;;9.43;61.59
60970;BME280;46841;48.938;9.502;2024-02-21T08:49:48;99072.81;;;9.91;60.25
60970;BME280;46841;48.938;9.502;2024-02-21T08:52:13;99066.25;;;10.30;58.46
60970;BME280;46841;48.938;9.502;2024-02-21T08:54:39;99060.44;;;10.41;59.44
60970;BME280;46841;48.938;9.502;2024-02-21T08:57:04;99042.97;;;10.76;57.49
60970;BME280;46841;48.938;9.502;2024-02-21T08:59:30;99038.94;;;10.62;56.33
60970;BME280;46841;48.938;9.502;2024-02-21T09:01:55;99038.59;;;10.02;58.66
60970;BME280;46841;48.938;9.502;2024-02-21T09:04:21;99042.25;;;10.06;58.83
60970;BME280;46841;48.938;9.502;2024-02-21T09:06:46;99045.16;;;10.12;57.27
60970;BME280;46841;48.938;9.502;2024-02-21T09:09:12;99042.09;;;9.77;57.63
60970;BME280;46841;48.938;9.502;2024-02-21T09:11:38;99032.63;;;9.85;57.95
60970;BME280;46841;48.938;9.502;2024-02-21T09:14:04;99030.47;;;9.99;57.67
60970;BME280;46841;48.938;9.502;2024-02-21T09:16:33;99025.44;;;9.59;58.25
60970;BME280;46841;48.938;9.502;2024-02-21T09:18:58;99023.94;;;9.91;58.13
60970;BME280;46841;48.938;9.502;2024-02-21T09:21:24;99025.38;;;9.81;58.63
60970;BME280;46841;48.938;9.502;2024-02-21T09:23:50;99018.94;;;10.00;56.99
60970;BME280;46841;48.938;9.502;2024-02-21T09:26:15;99005.25;;;9.89;57.34
60970;BME280;46841;48.938;9.502;2024-02-21T09:28:44;99014.44;;;10.23;57.38
60970;BME280;46841;48.938;9.502;2024-02-21T09:31:12;99016.72;;;10.36;55.68
60970;BME280;46841;48.938;9.502;2024-02-21T09:33:38;99019.22;;;10.59;56.38
60970;BME280;46841;48.938;9.502;2024-02-21T09:36:04;99019.22;;;10.59;55.93
60970;BME280;46841;48.938;9.502;2024-02-21T09:38:31;99011.75;;;10.74;56.29
60970;BME280;46841;48.938;9.502;2024-02-21T09:41:27;99007.28;;;11.01;56.18
60970;BME280;46841;48.938;9.502;2024-02-21T09:43:53;99004.25;;;11.46;55.19
60970;BME280;46841;48.938;9.502;2024-02-21T09:46:21;98999.91;;;11.81;53.74
60970;BME280;46841;48.938;9.502;2024-02-21T09:51:51;99001.00;;;12.18;52.76
60970;BME280;46841;48.938;9.502;2024-02-21T09:54:19;98999.53;;;11.98;54.05
60970;BME280;46841;48.938;9.502;2024-02-21T09:56:47;98990.31;;;12.54;51.33
60970;BME280;46841;48.938;9.502;2024-02-21T09:59:15;98985.69;;;12.47;51.71
60970;BME280;46841;48.938;9.502;2024-02-21T10:01:44;98984.06;;;12.54;51.29
60970;BME280;46841;48.938;9.502;2024-02-21T10:04:10;98982.69;;;13.07;50.38
60970;BME280;46841;48.938;9.502;2024-02-21T10:06:36;98980.53;;;13.27;49.66
60970;BME280;46841;48.938;9.502;2024-02-21T10:09:06;98979.59;;;13.27;48.00
60970;BME280;46841;48.938;9.502;2024-02-21T10:11:31;98973.13;;;13.56;47.15
60970;BME280;46841;48.938;9.502;2024-02-21T10:14:04;98971.91;;;13.42;46.80
60970;BME280;46841;48.938;9.502;2024-02-21T10:16:30;98966.06;;;13.62;46.92
60970;BME280;46841;48.938;9.502;2024-02-21T10:18:56;98962.13;;;13.88;46.07
60970;BME280;46841;48.938;9.502;2024-02-21T10:21:21;98960.06;;;14.20;45.89
60970;BME280;46841;48.938;9.502;2024-02-21T10:23:49;98960.47;;;14.96;43.49
60970;BME280;46841;48.938;9.502;2024-02-21T10:26:17;98955.38;;;15.14;43.08
60970;BME280;46841;48.938;9.502;2024-02-21T10:28:43;98952.22;;;14.84;43.15
60970;BME280;46841;48.938;9.502;2024-02-21T10:31:22;98943.28;;;14.85;43.32
60970;BME280;46841;48.938;9.502;2024-02-21T10:34:01;98933.97;;;15.22;42.09
60970;BME280;46841;48.938;9.502;2024-02-21T10:36:30;98934.56;;;15.63;41.58
60970;BME280;46841;48.938;9.502;2024-02-21T10:38:56;98931.84;;;14.44;43.15
60970;BME280;46841;48.938;9.502;2024-02-21T10:41:23;98935.47;;;15.02;43.33
60970;BME280;46841;48.938;9.502;2024-02-21T10:43:53;98912.78;;;15.44;41.89
60970;BME280;46841;48.938;9.502;2024-02-21T10:46:22;98928.03;;;14.82;42.15
60970;BME280;46841;48.938;9.502;2024-02-21T10:49:01;98917.03;;;14.14;43.79
60970;BME280;46841;48.938;9.502;2024-02-21T10:51:31;98912.84;;;14.31;44.05
60970;BME280;46841;48.938;9.502;2024-02-21T10:56:54;98902.81;;;14.21;43.90
60970;BME280;46841;48.938;9.502;2024-02-21T10:59:23;98899.16;;;14.18;44.43
60970;BME280;46841;48.938;9.502;2024-02-21T11:01:49;98890.97;;;14.60;44.37
60970;BME280;46841;48.938;9.502;2024-02-21T11:04:15;98881.09;;;14.57;42.70
60970;BME280;46841;48.938;9.502;2024-02-21T11:06:42;98872.91;;;14.50;44.49
60970;BME280;46841;48.938;9.502;2024-02-21T11:09:11;98868.56;;;14.58;44.24
60970;BME280;46841;48.938;9.502;2024-02-21T11:11:44;98867.41;;;14.42;44.40
60970;BME280;46841;48.938;9.502;2024-02-21T11:14:20;98856.94;;;14.59;44.00
60970;BME280;46841;48.938;9.502;2024-02-21T11:16:46;98850.75;;;14.08;44.06
60970;BME280;46841;48.938;9.502;2024-02-21T11:19:19;98851.34;;;13.94;44.72
60970;BME280;46841;48.938;9.502;2024-02-21T11:21:45;98845.88;;;14.39;43.01
60970;BME280;46841;48.938;9.502;2024-02-21T11:24:10;98837.94;;;13.44;44.00
60970;BME280;46841;48.938;9.502;2024-02-21T11:26:40;98826.66;;;14.69;42.22
60970;BME280;46841;48.938;9.502;2024-02-21T11:29:08;98815.41;;;14.99;42.33
60970;BME280;46841;48.938;9.502;2024-02-21T11:31:42;98823.13;;;14.72;42.89
60970;BME280;46841;48.938;9.502;2024-02-21T11:34:12;98809.31;;;14.47;42.78
60970;BME280;46841;48.938;9.502;2024-02-21T11:36:53;98814.31;;;14.24;43.19
60970;BME280;46841;48.938;9.502;2024-02-21T11:39:26;98797.53;;;14.37;42.85
60970;BME280;46841;48.938;9.502;2024-02-21T11:42:04;98797.53;;;13.83;42.82
60970;BME280;46841;48.938;9.502;2024-02-21T11:44:31;98795.78;;;13.85;42.72
60970;BME280;46841;48.938;9.502;2024-02-21T11:46:58;98790.66;;;13.47;41.47
60970;BME280;46841;48.938;9.502;2024-02-21T11:49:43;98789.00;;;14.07;41.37
60970;BME280;46841;48.938;9.502;2024-02-21T11:52:10;98785.28;;;13.99;42.07
60970;BME280;46841;48.938;9.502;2024-02-21T11:54:36;98784.06;;;14.36;41.77
60970;BME280;46841;48.938;9.502;2024-02-21T11:57:01;98767.56;;;14.68;40.99
60970;BME280;46841;48.938;9.502;2024-02-21T11:59:32;98766.16;;;14.35;41.16
60970;BME280;46841;48.938;9.502;2024-02-21T12:01:59;98755.09;;;14.74;40.95
60970;BME280;46841;48.938;9.502;2024-02-21T12:04:26;98745.03;;;15.31;39.53
60970;BME280;46841;48.938;9.502;2024-02-21T12:06:54;98740.75;;;15.50;39.15
60970;BME280;46841;48.938;9.502;2024-02-21T12:09:22;98739.88;;;15.52;38.59
60970;BME280;46841;48.938;9.502;2024-02-21T12:11:57;98743.06;;;15.14;39.56
60970;BME280;46841;48.938;9.502;2024-02-21T12:14:24;98730.03;;;15.53;38.31
60970;BME280;46841;48.938;9.502;2024-02-21T12:16:50;98735.03;;;15.18;39.37
60970;BME280;46841;48.938;9.502;2024-02-21T12:19:17;98724.94;;;14.95;39.56
60970;BME280;46841;48.938;9.502;2024-02-21T12:21:43;98718.25;;;15.42;39.06
60970;BME280;46841;48.938;9.502;2024-02-21T12:24:22;98720.25;;;14.79;39.17
60970;BME280;46841;48.938;9.502;2024-02-21T12:26:51;98709.50;;;14.77;39.47
60970;BME280;46841;48.938;9.502;2024-02-21T12:29:19;98720.47;;;14.30;39.88
60970;BME280;46841;48.938;9.502;2024-02-21T12:31:45;98703.03;;;14.61;39.63
60970;BME280;46841;48.938;9.502;2024-02-21T12:34:10;98701.88;;;13.82;41.85
60970;BME280;46841;48.938;9.502;2024-02-21T12:36:43;98687.91;;;14.70;40.56
60970;BME280;46841;48.938;9.502;2024-02-21T12:39:18;98682.19;;;14.44;39.00
60970;BME280;46841;48.938;9.502;2024-02-21T12:41:45;98682.47;;;14.65;40.22
60970;BME280;46841;48.938;9.502;2024-02-21T12:44:13;98676.59;;;14.27;40.86
60970;BME280;46841;48.938;9.502;2024-02-21T12:46:40;98672.09;;;14.24;40.96
60970;BME280;46841;48.938;9.502;2024-02-21T12:49:33;98668.53;;;14.25;40.61
60970;BME280;46841;48.938;9.502;2024-02-21T12:51:59;98653.22;;;14.18;40.69
60970;BME280;46841;48.938;9.502;2024-02-21T12:54:28;98655.34;;;14.45;40.05
60970;BME280;46841;48.938;9.502;2024-02-21T12:56:55;98637.97;;;14.16;41.25
60970;BME280;46841;48.938;9.502;2024-02-21T12:59:21;98639.19;;;14.41;40.13
60970;BME280;46841;48.938;9.502;2024-02-21T13:01:46;98634.91;;;14.53;40.21
60970;BME280;46841;48.938;9.502;2024-02-21T13:04:12;98628.16;;;14.18;39.53
60970;BME280;46841;48.938;9.502;2024-02-21T13:06:38;98625.28;;;14.02;40.04
60970;BME280;46841;48.938;9.502;2024-02-21T13:09:04;98627.66;;;13.81;40.33
60970;BME280;46841;48.938;9.502;2024-02-21T13:11:34;98618.44;;;14.27;39.25
60970;BME280;46841;48.938;9.502;2024-02-21T13:13:59;98611.50;;;14.46;39.75